sensor_id;sensor_type;location;lat;lon;timestamp;temperature;humidity
16076;DHT22;8142;48.242;11.644;2023-07-31T00:00:32;17.80;99.90
16076;DHT22;8142;48.242;11.644;2023-07-31T00:02:58;17.80;99.90
16076;DHT22;8142;48.242;11.644;2023-07-31T00:05:24;17.80;99.90
16076;DHT22;8142;48.242;11.644;2023-07-31T00:07:49;17.70;99.90
16076;DHT22;8142;48.242;11.644;2023-07-31T00:10:15;17.60;99.90
16076;DHT22;8142;48.242;11.644;2023-07-31T00:12:43;17.60;99.90
16076;DHT22;8142;48.242;11.644;2023-07-31T00:15:09;17.60;99.90
16076;DHT22;8142;48.242;11.644;2023-07-31T00:17:36;17.60;99.90
16076;DHT22;8142;48.242;11.644;2023-07-31T00:20:02;17.50;99.90
16076;DHT22;8142;48.242;11.644;2023-07-31T00:22:28;17.50;99.90
16076;DHT22;8142;48.242;11.644;2023-07-31T00:24:56;17.50;99.90
16076;DHT22;8142;48.242;11.644;2023-07-31T00:27:22;17.40;99.90
16076;DHT22;8142;48.242;11.644;2023-07-31T00:29:48;17.40;99.90
16076;DHT22;8142;48.242;11.644;2023-07-31T00:32:14;17.40;99.90
16076;DHT22;8142;48.242;11.644;2023-07-31T00:34:40;17.40;99.90
16076;DHT22;8142;48.242;11.644;2023-07-31T00:37:05;17.40;99.90
16076;DHT22;8142;48.242;11.644;2023-07-31T00:39:34;17.40;99.90
16076;DHT22;8142;48.242;11.644;2023-07-31T00:42:00;17.40;99.90
16076;DHT22;8142;48.242;11.644;2023-07-31T00:44:26;17.30;99.90
16076;DHT22;8142;48.242;11.644;2023-07-31T00:46:52;17.30;99.90
16076;DHT22;8142;48.242;11.644;2023-07-31T00:49:19;17.30;99.90
16076;DHT22;8142;48.242;11.644;2023-07-31T00:51:45;17.40;99.90
16076;DHT22;8142;48.242;11.644;2023-07-31T00:54:11;17.40;99.90
16076;DHT22;8142;48.242;11.644;2023-07-31T00:56:38;17.40;99.90
16076;DHT22;8142;48.242;11.644;2023-07-31T00:59:04;17.40;99.90
16076;DHT22;8142;48.242;11.644;2023-07-31T01:01:29;17.50;99.90
16076;DHT22;8142;48.242;11.644;2023-07-31T01:03:55;17.40;99.90
16076;DHT22;8142;48.242;11.644;2023-07-31T01:06:37;17.40;99.90
16076;DHT22;8142;48.242;11.644;2023-07-31T01:12:06;17.40;99.90
16076;DHT22;8142;48.242;11.644;2023-07-31T01:14:32;17.40;99.90
16076;DHT22;8142;48.242;11.644;2023-07-31T01:16:58;17.40;99.90
16076;DHT22;8142;48.242;11.644;2023-07-31T01:19:25;17.40;99.90
16076;DHT22;8142;48.242;11.644;2023-07-31T01:27:15;17.40;99.90
16076;DHT22;8142;48.242;11.644;2023-07-31T01:29:47;17.40;99.90
16076;DHT22;8142;48.242;11.644;2023-07-31T01:32:15;17.40;99.90
16076;DHT22;8142;48.242;11.644;2023-07-31T01:34:43;17.40;99.90
16076;DHT22;8142;48.242;11.644;2023-07-31T01:37:09;17.40;99.90
16076;DHT22;8142;48.242;11.644;2023-07-31T01:39:35;17.40;99.90
16076;DHT22;8142;48.242;11.644;2023-07-31T01:42:01;17.40;99.90
16076;DHT22;8142;48.242;11.644;2023-07-31T01:44:28;17.40;99.90
16076;DHT22;8142;48.242;11.644;2023-07-31T01:46:54;17.30;99.90
16076;DHT22;8142;48.242;11.644;2023-07-31T01:49:19;17.30;99.90
16076;DHT22;8142;48.242;11.644;2023-07-31T01:51:45;17.30;99.90
16076;DHT22;8142;48.242;11.644;2023-07-31T01:54:11;17.40;99.90
16076;DHT22;8142;48.242;11.644;2023-07-31T01:56:37;17.40;99.90
16076;DHT22;8142;48.242;11.644;2023-07-31T01:59:03;17.30;99.90
16076;DHT22;8142;48.242;11.644;2023-07-31T02:01:28;17.30;99.90
16076;DHT22;8142;48.242;11.644;2023-07-31T02:03:54;17.30;99.90
16076;DHT22;8142;48.242;11.644;2023-07-31T02:06:20;17.40;99.90
16076;DHT22;8142;48.242;11.644;2023-07-31T02:08:46;17.30;99.90
16076;DHT22;8142;48.242;11.644;2023-07-31T02:11:12;17.30;99.90
16076;DHT22;8142;48.242;11.644;2023-07-31T02:13:38;17.30;99.90
16076;DHT22;8142;48.242;11.644;2023-07-31T02:16:03;17.30;99.90
16076;DHT22;8142;48.242;11.644;2023-07-31T02:18:29;17.30;99.90
16076;DHT22;8142;48.242;11.644;2023-07-31T02:20:55;17.30;99.90
16076;DHT22;8142;48.242;11.644;2023-07-31T02:23:21;17.30;99.90
16076;DHT22;8142;48.242;11.644;2023-07-31T02:25:47;17.30;99.90
16076;DHT22;8142;48.242;11.644;2023-07-31T02:28:13;17.30;99.90
16076;DHT22;8142;48.242;11.644;2023-07-31T02:30:39;17.20;99.90
16076;DHT22;8142;48.242;11.644;2023-07-31T02:33:05;17.10;99.90
16076;DHT22;8142;48.242;11.644;2023-07-31T02:35:31;17.20;99.90
16076;DHT22;8142;48.242;11.644;2023-07-31T02:37:57;17.20;99.90
16076;DHT22;8142;48.242;11.644;2023-07-31T02:40:23;17.20;99.90
16076;DHT22;8142;48.242;11.644;2023-07-31T02:42:49;17.10;99.90
16076;DHT22;8142;48.242;11.644;2023-07-31T02:45:14;17.10;99.90
16076;DHT22;8142;48.242;11.644;2023-07-31T02:47:40;17.10;99.90
16076;DHT22;8142;48.242;11.644;2023-07-31T02:50:06;17.10;99.90
16076;DHT22;8142;48.242;11.644;2023-07-31T02:52:32;17.10;99.90
16076;DHT22;8142;48.242;11.644;2023-07-31T02:54:58;17.10;99.90
16076;DHT22;8142;48.242;11.644;2023-07-31T02:57:24;17.00;99.90
16076;DHT22;8142;48.242;11.644;2023-07-31T02:59:50;17.00;99.90
16076;DHT22;8142;48.242;11.644;2023-07-31T03:02:16;17.00;99.90
16076;DHT22;8142;48.242;11.644;2023-07-31T03:04:42;17.00;99.90
16076;DHT22;8142;48.242;11.644;2023-07-31T03:07:08;16.70;99.90
16076;DHT22;8142;48.242;11.644;2023-07-31T03:09:34;16.60;99.90
16076;DHT22;8142;48.242;11.644;2023-07-31T03:12:00;16.40;99.90
16076;DHT22;8142;48.242;11.644;2023-07-31T03:14:26;16.20;99.90
16076;DHT22;8142;48.242;11.644;2023-07-31T03:16:52;16.00;99.90
16076;DHT22;8142;48.242;11.644;2023-07-31T03:19:18;15.90;99.90
16076;DHT22;8142;48.242;11.644;2023-07-31T03:21:44;15.70;99.90
16076;DHT22;8142;48.242;11.644;2023-07-31T03:24:09;15.60;99.90
16076;DHT22;8142;48.242;11.644;2023-07-31T03:26:37;15.50;99.90
16076;DHT22;8142;48.242;11.644;2023-07-31T03:29:03;15.40;99.90
16076;DHT22;8142;48.242;11.644;2023-07-31T03:31:29;15.30;99.90
16076;DHT22;8142;48.242;11.644;2023-07-31T03:33:55;15.10;99.90
16076;DHT22;8142;48.242;11.644;2023-07-31T03:36:21;15.10;99.90
16076;DHT22;8142;48.242;11.644;2023-07-31T03:38:47;15.00;99.90
16076;DHT22;8142;48.242;11.644;2023-07-31T03:41:15;15.00;99.90
16076;DHT22;8142;48.242;11.644;2023-07-31T03:43:41;15.00;99.90
16076;DHT22;8142;48.242;11.644;2023-07-31T03:46:07;15.10;99.90
16076;DHT22;8142;48.242;11.644;2023-07-31T03:48:33;15.10;99.90
16076;DHT22;8142;48.242;11.644;2023-07-31T03:50:58;15.20;99.90
16076;DHT22;8142;48.242;11.644;2023-07-31T03:53:24;15.20;99.90
16076;DHT22;8142;48.242;11.644;2023-07-31T03:55:50;15.40;99.90
16076;DHT22;8142;48.242;11.644;2023-07-31T03:58:16;15.50;99.90
16076;DHT22;8142;48.242;11.644;2023-07-31T04:00:42;15.60;99.90
16076;DHT22;8142;48.242;11.644;2023-07-31T04:03:08;15.70;99.90
16076;DHT22;8142;48.242;11.644;2023-07-31T04:05:38;15.70;99.90
16076;DHT22;8142;48.242;11.644;2023-07-31T04:08:04;15.80;99.90
16076;DHT22;8142;48.242;11.644;2023-07-31T04:10:29;15.90;99.90
16076;DHT22;8142;48.242;11.644;2023-07-31T04:12:56;16.00;99.90
16076;DHT22;8142;48.242;11.644;2023-07-31T04:15:22;16.00;99.90
16076;DHT22;8142;48.242;11.644;2023-07-31T04:17:48;16.10;99.90
16076;DHT22;8142;48.242;11.644;2023-07-31T04:20:14;16.10;99.90
16076;DHT22;8142;48.242;11.644;2023-07-31T04:22:40;16.20;99.90
16076;DHT22;8142;48.242;11.644;2023-07-31T04:25:06;16.30;99.90
16076;DHT22;8142;48.242;11.644;2023-07-31T04:27:32;16.30;99.90
16076;DHT22;8142;48.242;11.644;2023-07-31T04:29:58;16.30;99.90
16076;DHT22;8142;48.242;11.644;2023-07-31T04:32:24;16.40;99.90
16076;DHT22;8142;48.242;11.644;2023-07-31T04:34:49;16.50;99.90
16076;DHT22;8142;48.242;11.644;2023-07-31T04:37:15;16.50;99.90
16076;DHT22;8142;48.242;11.644;2023-07-31T04:39:41;16.60;99.90
16076;DHT22;8142;48.242;11.644;2023-07-31T04:42:07;16.70;99.90
16076;DHT22;8142;48.242;11.644;2023-07-31T04:44:33;16.60;99.90
16076;DHT22;8142;48.242;11.644;2023-07-31T04:46:59;16.70;99.90
16076;DHT22;8142;48.242;11.644;2023-07-31T04:49:25;16.80;99.90
16076;DHT22;8142;48.242;11.644;2023-07-31T04:51:51;16.80;99.90
16076;DHT22;8142;48.242;11.644;2023-07-31T04:54:17;16.90;99.90
16076;DHT22;8142;48.242;11.644;2023-07-31T04:56:42;16.90;99.90
16076;DHT22;8142;48.242;11.644;2023-07-31T04:59:08;17.00;99.90
16076;DHT22;8142;48.242;11.644;2023-07-31T05:01:34;17.10;99.90
16076;DHT22;8142;48.242;11.644;2023-07-31T05:04:00;17.10;99.90
16076;DHT22;8142;48.242;11.644;2023-07-31T05:06:26;17.20;99.90
16076;DHT22;8142;48.242;11.644;2023-07-31T05:08:52;17.20;99.90
16076;DHT22;8142;48.242;11.644;2023-07-31T05:11:18;17.30;99.90
16076;DHT22;8142;48.242;11.644;2023-07-31T05:13:43;17.40;99.90
16076;DHT22;8142;48.242;11.644;2023-07-31T05:16:09;17.40;99.90
16076;DHT22;8142;48.242;11.644;2023-07-31T05:18:35;17.50;99.90
16076;DHT22;8142;48.242;11.644;2023-07-31T05:21:01;17.60;99.90
16076;DHT22;8142;48.242;11.644;2023-07-31T05:23:27;17.70;99.90
16076;DHT22;8142;48.242;11.644;2023-07-31T05:25:53;17.80;99.90
16076;DHT22;8142;48.242;11.644;2023-07-31T05:28:21;17.90;99.90
16076;DHT22;8142;48.242;11.644;2023-07-31T05:30:47;18.10;99.90
16076;DHT22;8142;48.242;11.644;2023-07-31T05:33:13;18.20;99.90
16076;DHT22;8142;48.242;11.644;2023-07-31T05:35:39;18.40;99.90
16076;DHT22;8142;48.242;11.644;2023-07-31T05:38:05;18.60;99.90
16076;DHT22;8142;48.242;11.644;2023-07-31T05:40:33;18.80;99.90
16076;DHT22;8142;48.242;11.644;2023-07-31T05:42:58;19.10;99.90
16076;DHT22;8142;48.242;11.644;2023-07-31T05:45:25;19.30;99.90
16076;DHT22;8142;48.242;11.644;2023-07-31T05:47:51;19.70;99.90
16076;DHT22;8142;48.242;11.644;2023-07-31T05:50:17;20.00;99.90
16076;DHT22;8142;48.242;11.644;2023-07-31T05:52:42;20.30;99.90
16076;DHT22;8142;48.242;11.644;2023-07-31T05:55:08;20.70;99.90
16076;DHT22;8142;48.242;11.644;2023-07-31T05:57:34;21.00;99.90
16076;DHT22;8142;48.242;11.644;2023-07-31T06:00:00;21.20;99.90
16076;DHT22;8142;48.242;11.644;2023-07-31T06:02:26;21.40;99.90
16076;DHT22;8142;48.242;11.644;2023-07-31T06:04:52;21.40;99.90
16076;DHT22;8142;48.242;11.644;2023-07-31T06:07:18;21.30;99.90
16076;DHT22;8142;48.242;11.644;2023-07-31T06:09:44;21.20;99.90
16076;DHT22;8142;48.242;11.644;2023-07-31T06:12:11;21.00;99.90
16076;DHT22;8142;48.242;11.644;2023-07-31T06:14:46;20.80;99.90
16076;DHT22;8142;48.242;11.644;2023-07-31T06:17:12;20.50;99.90
16076;DHT22;8142;48.242;11.644;2023-07-31T06:19:43;20.30;99.90
16076;DHT22;8142;48.242;11.644;2023-07-31T06:22:09;20.10;99.90
16076;DHT22;8142;48.242;11.644;2023-07-31T06:24:35;19.90;99.90
16076;DHT22;8142;48.242;11.644;2023-07-31T06:27:01;19.80;99.90
16076;DHT22;8142;48.242;11.644;2023-07-31T06:29:29;19.80;99.90
16076;DHT22;8142;48.242;11.644;2023-07-31T06:31:55;19.80;99.90
16076;DHT22;8142;48.242;11.644;2023-07-31T06:34:21;19.80;99.90
16076;DHT22;8142;48.242;11.644;2023-07-31T06:36:47;19.80;99.90
16076;DHT22;8142;48.242;11.644;2023-07-31T06:39:13;19.80;99.90
16076;DHT22;8142;48.242;11.644;2023-07-31T06:41:39;19.80;99.90
16076;DHT22;8142;48.242;11.644;2023-07-31T06:44:05;19.80;99.90
16076;DHT22;8142;48.242;11.644;2023-07-31T06:46:31;19.80;99.90
16076;DHT22;8142;48.242;11.644;2023-07-31T06:48:56;19.90;99.90
16076;DHT22;8142;48.242;11.644;2023-07-31T06:51:22;19.90;99.90
16076;DHT22;8142;48.242;11.644;2023-07-31T06:53:48;19.90;99.90
16076;DHT22;8142;48.242;11.644;2023-07-31T06:56:14;20.00;99.90
16076;DHT22;8142;48.242;11.644;2023-07-31T06:58:40;20.00;99.90
16076;DHT22;8142;48.242;11.644;2023-07-31T07:01:06;20.00;99.90
16076;DHT22;8142;48.242;11.644;2023-07-31T07:03:32;20.10;99.90
16076;DHT22;8142;48.242;11.644;2023-07-31T07:05:58;20.30;99.90
16076;DHT22;8142;48.242;11.644;2023-07-31T07:08:24;20.30;99.90
16076;DHT22;8142;48.242;11.644;2023-07-31T07:10:50;20.40;99.90
16076;DHT22;8142;48.242;11.644;2023-07-31T07:13:19;20.40;99.90
16076;DHT22;8142;48.242;11.644;2023-07-31T07:15:49;20.50;99.90
16076;DHT22;8142;48.242;11.644;2023-07-31T07:18:15;20.50;99.90
16076;DHT22;8142;48.242;11.644;2023-07-31T07:20:46;20.60;99.90
16076;DHT22;8142;48.242;11.644;2023-07-31T07:23:12;20.60;99.90
16076;DHT22;8142;48.242;11.644;2023-07-31T07:25:38;20.60;99.90
16076;DHT22;8142;48.242;11.644;2023-07-31T07:28:04;20.70;99.90
16076;DHT22;8142;48.242;11.644;2023-07-31T07:30:30;20.70;99.90
16076;DHT22;8142;48.242;11.644;2023-07-31T07:32:56;20.70;99.90
16076;DHT22;8142;48.242;11.644;2023-07-31T07:35:22;20.70;99.90
16076;DHT22;8142;48.242;11.644;2023-07-31T07:37:51;20.70;99.90
16076;DHT22;8142;48.242;11.644;2023-07-31T07:40:16;20.80;99.90
16076;DHT22;8142;48.242;11.644;2023-07-31T07:42:42;20.80;99.90
16076;DHT22;8142;48.242;11.644;2023-07-31T07:45:08;20.80;99.90
16076;DHT22;8142;48.242;11.644;2023-07-31T07:47:34;20.80;99.90
16076;DHT22;8142;48.242;11.644;2023-07-31T07:50:00;20.80;99.90
16076;DHT22;8142;48.242;11.644;2023-07-31T07:52:26;20.80;99.90
16076;DHT22;8142;48.242;11.644;2023-07-31T07:54:52;20.90;99.90
16076;DHT22;8142;48.242;11.644;2023-07-31T07:57:18;20.90;99.90
16076;DHT22;8142;48.242;11.644;2023-07-31T07:59:44;21.00;99.90
16076;DHT22;8142;48.242;11.644;2023-07-31T08:02:10;21.10;99.90
16076;DHT22;8142;48.242;11.644;2023-07-31T08:04:36;21.30;99.90
16076;DHT22;8142;48.242;11.644;2023-07-31T08:07:02;21.40;99.90
16076;DHT22;8142;48.242;11.644;2023-07-31T08:09:28;21.50;99.90
16076;DHT22;8142;48.242;11.644;2023-07-31T08:11:54;21.60;99.90
16076;DHT22;8142;48.242;11.644;2023-07-31T08:14:20;21.60;99.90
16076;DHT22;8142;48.242;11.644;2023-07-31T08:16:46;21.70;99.90
16076;DHT22;8142;48.242;11.644;2023-07-31T08:19:11;21.90;99.90
16076;DHT22;8142;48.242;11.644;2023-07-31T08:21:37;22.10;99.90
16076;DHT22;8142;48.242;11.644;2023-07-31T08:24:03;22.40;99.90
16076;DHT22;8142;48.242;11.644;2023-07-31T08:26:29;22.70;99.90
16076;DHT22;8142;48.242;11.644;2023-07-31T08:28:55;22.90;99.90
16076;DHT22;8142;48.242;11.644;2023-07-31T08:31:21;23.10;99.90
16076;DHT22;8142;48.242;11.644;2023-07-31T08:33:47;23.30;99.90
16076;DHT22;8142;48.242;11.644;2023-07-31T08:36:12;23.40;99.90
16076;DHT22;8142;48.242;11.644;2023-07-31T08:38:38;23.40;99.90
16076;DHT22;8142;48.242;11.644;2023-07-31T08:41:04;23.40;99.90
16076;DHT22;8142;48.242;11.644;2023-07-31T08:43:31;23.40;99.90
16076;DHT22;8142;48.242;11.644;2023-07-31T08:45:58;23.30;99.90
16076;DHT22;8142;48.242;11.644;2023-07-31T08:48:24;23.30;99.90
16076;DHT22;8142;48.242;11.644;2023-07-31T08:50:54;23.20;99.90
16076;DHT22;8142;48.242;11.644;2023-07-31T08:53:19;23.10;99.90
16076;DHT22;8142;48.242;11.644;2023-07-31T08:55:46;23.00;99.90
16076;DHT22;8142;48.242;11.644;2023-07-31T08:58:13;22.90;99.90
16076;DHT22;8142;48.242;11.644;2023-07-31T09:00:42;22.80;99.90
16076;DHT22;8142;48.242;11.644;2023-07-31T09:03:14;22.70;99.90
16076;DHT22;8142;48.242;11.644;2023-07-31T09:05:45;22.60;99.90
16076;DHT22;8142;48.242;11.644;2023-07-31T09:08:13;22.40;99.90
16076;DHT22;8142;48.242;11.644;2023-07-31T09:10:44;22.40;99.90
16076;DHT22;8142;48.242;11.644;2023-07-31T09:13:16;22.30;99.90
16076;DHT22;8142;48.242;11.644;2023-07-31T09:15:45;22.20;99.90
16076;DHT22;8142;48.242;11.644;2023-07-31T09:18:12;22.10;99.90
16076;DHT22;8142;48.242;11.644;2023-07-31T09:20:38;22.10;99.90
16076;DHT22;8142;48.242;11.644;2023-07-31T09:23:12;22.00;99.90
16076;DHT22;8142;48.242;11.644;2023-07-31T09:25:39;22.00;99.90
16076;DHT22;8142;48.242;11.644;2023-07-31T09:28:10;22.00;99.90
16076;DHT22;8142;48.242;11.644;2023-07-31T09:30:48;22.00;99.90
16076;DHT22;8142;48.242;11.644;2023-07-31T09:33:14;22.10;99.90
16076;DHT22;8142;48.242;11.644;2023-07-31T09:35:41;22.10;99.90
16076;DHT22;8142;48.242;11.644;2023-07-31T09:38:10;22.10;99.90
16076;DHT22;8142;48.242;11.644;2023-07-31T09:40:38;22.20;99.90
16076;DHT22;8142;48.242;11.644;2023-07-31T09:43:09;22.20;99.90
16076;DHT22;8142;48.242;11.644;2023-07-31T09:45:37;22.20;99.90
16076;DHT22;8142;48.242;11.644;2023-07-31T09:48:10;22.20;99.90
16076;DHT22;8142;48.242;11.644;2023-07-31T09:50:37;22.20;99.90
16076;DHT22;8142;48.242;11.644;2023-07-31T09:53:06;22.30;99.90
16076;DHT22;8142;48.242;11.644;2023-07-31T09:55:32;22.30;99.90
16076;DHT22;8142;48.242;11.644;2023-07-31T09:57:58;22.40;99.90
16076;DHT22;8142;48.242;11.644;2023-07-31T10:00:25;22.40;99.90
16076;DHT22;8142;48.242;11.644;2023-07-31T10:02:54;22.50;99.90
16076;DHT22;8142;48.242;11.644;2023-07-31T10:05:23;22.60;99.90
16076;DHT22;8142;48.242;11.644;2023-07-31T10:07:53;22.60;99.90
16076;DHT22;8142;48.242;11.644;2023-07-31T10:10:21;22.70;99.90
16076;DHT22;8142;48.242;11.644;2023-07-31T10:12:49;22.70;99.90
16076;DHT22;8142;48.242;11.644;2023-07-31T10:15:16;22.70;99.90
16076;DHT22;8142;48.242;11.644;2023-07-31T10:17:43;22.80;99.90
16076;DHT22;8142;48.242;11.644;2023-07-31T10:20:09;22.80;99.90
16076;DHT22;8142;48.242;11.644;2023-07-31T10:22:36;22.90;99.90
16076;DHT22;8142;48.242;11.644;2023-07-31T10:25:02;22.90;99.90
16076;DHT22;8142;48.242;11.644;2023-07-31T10:27:28;22.80;99.90
16076;DHT22;8142;48.242;11.644;2023-07-31T10:29:56;22.80;99.90
16076;DHT22;8142;48.242;11.644;2023-07-31T10:32:32;22.80;99.90
16076;DHT22;8142;48.242;11.644;2023-07-31T10:34:59;22.80;99.90
16076;DHT22;8142;48.242;11.644;2023-07-31T10:37:35;22.80;99.90
16076;DHT22;8142;48.242;11.644;2023-07-31T10:40:37;22.80;99.90
16076;DHT22;8142;48.242;11.644;2023-07-31T10:43:03;22.90;99.90
16076;DHT22;8142;48.242;11.644;2023-07-31T10:45:37;22.90;99.90
16076;DHT22;8142;48.242;11.644;2023-07-31T10:48:15;22.90;99.90
16076;DHT22;8142;48.242;11.644;2023-07-31T10:50:51;23.00;99.90
16076;DHT22;8142;48.242;11.644;2023-07-31T10:53:26;23.00;99.90
16076;DHT22;8142;48.242;11.644;2023-07-31T10:55:52;23.00;99.90
16076;DHT22;8142;48.242;11.644;2023-07-31T10:58:20;23.00;99.90
16076;DHT22;8142;48.242;11.644;2023-07-31T11:00:57;23.00;99.90
16076;DHT22;8142;48.242;11.644;2023-07-31T11:06:06;22.90;99.90
16076;DHT22;8142;48.242;11.644;2023-07-31T11:08:33;23.00;99.90
16076;DHT22;8142;48.242;11.644;2023-07-31T11:13:52;23.00;99.90
16076;DHT22;8142;48.242;11.644;2023-07-31T11:16:20;23.00;99.90
16076;DHT22;8142;48.242;11.644;2023-07-31T11:18:47;23.00;99.90
16076;DHT22;8142;48.242;11.644;2023-07-31T11:21:15;23.00;99.90
16076;DHT22;8142;48.242;11.644;2023-07-31T11:23:46;23.00;99.90
16076;DHT22;8142;48.242;11.644;2023-07-31T11:26:12;23.00;99.90
16076;DHT22;8142;48.242;11.644;2023-07-31T11:28:38;23.00;99.90
16076;DHT22;8142;48.242;11.644;2023-07-31T11:31:04;23.00;99.90
16076;DHT22;8142;48.242;11.644;2023-07-31T11:33:31;23.00;99.90
16076;DHT22;8142;48.242;11.644;2023-07-31T11:35:57;23.00;99.90
16076;DHT22;8142;48.242;11.644;2023-07-31T11:38:24;23.00;99.90
16076;DHT22;8142;48.242;11.644;2023-07-31T11:40:51;23.00;99.90
16076;DHT22;8142;48.242;11.644;2023-07-31T11:43:18;23.00;99.90
16076;DHT22;8142;48.242;11.644;2023-07-31T11:45:47;23.10;99.90
16076;DHT22;8142;48.242;11.644;2023-07-31T11:48:21;23.10;99.90
16076;DHT22;8142;48.242;11.644;2023-07-31T11:50:48;23.00;99.90
16076;DHT22;8142;48.242;11.644;2023-07-31T11:53:16;23.10;99.90
16076;DHT22;8142;48.242;11.644;2023-07-31T11:55:43;23.20;99.90
16076;DHT22;8142;48.242;11.644;2023-07-31T11:58:09;23.20;99.90
16076;DHT22;8142;48.242;11.644;2023-07-31T12:00:35;23.20;99.90
16076;DHT22;8142;48.242;11.644;2023-07-31T12:03:01;23.20;99.90
16076;DHT22;8142;48.242;11.644;2023-07-31T12:05:27;23.20;99.90
16076;DHT22;8142;48.242;11.644;2023-07-31T12:07:54;23.20;99.90
16076;DHT22;8142;48.242;11.644;2023-07-31T12:10:24;23.20;99.90
16076;DHT22;8142;48.242;11.644;2023-07-31T12:13:04;23.20;99.90
16076;DHT22;8142;48.242;11.644;2023-07-31T12:15:39;23.20;99.90
16076;DHT22;8142;48.242;11.644;2023-07-31T12:18:10;23.20;99.90
16076;DHT22;8142;48.242;11.644;2023-07-31T12:20:44;23.30;99.90
16076;DHT22;8142;48.242;11.644;2023-07-31T12:25:40;23.40;99.90
16076;DHT22;8142;48.242;11.644;2023-07-31T12:28:06;23.40;99.90
16076;DHT22;8142;48.242;11.644;2023-07-31T12:30:37;23.40;99.90
16076;DHT22;8142;48.242;11.644;2023-07-31T12:33:05;23.40;99.90
16076;DHT22;8142;48.242;11.644;2023-07-31T12:35:36;23.50;99.90
16076;DHT22;8142;48.242;11.644;2023-07-31T12:38:03;23.50;99.90
16076;DHT22;8142;48.242;11.644;2023-07-31T12:40:29;23.50;99.90
16076;DHT22;8142;48.242;11.644;2023-07-31T12:42:55;23.60;99.90
16076;DHT22;8142;48.242;11.644;2023-07-31T12:45:21;23.60;99.90
16076;DHT22;8142;48.242;11.644;2023-07-31T12:47:47;23.60;99.90
16076;DHT22;8142;48.242;11.644;2023-07-31T12:50:12;23.60;99.90
16076;DHT22;8142;48.242;11.644;2023-07-31T12:52:38;23.60;99.90
16076;DHT22;8142;48.242;11.644;2023-07-31T12:55:04;23.70;99.90
16076;DHT22;8142;48.242;11.644;2023-07-31T12:57:30;23.80;99.90
16076;DHT22;8142;48.242;11.644;2023-07-31T12:59:56;23.80;99.90
16076;DHT22;8142;48.242;11.644;2023-07-31T13:02:22;23.90;99.90
16076;DHT22;8142;48.242;11.644;2023-07-31T13:04:56;23.90;99.90
16076;DHT22;8142;48.242;11.644;2023-07-31T13:07:22;24.00;99.90
16076;DHT22;8142;48.242;11.644;2023-07-31T13:09:48;24.00;99.90
16076;DHT22;8142;48.242;11.644;2023-07-31T13:12:14;24.00;99.90
16076;DHT22;8142;48.242;11.644;2023-07-31T13:14:43;24.00;99.90
16076;DHT22;8142;48.242;11.644;2023-07-31T13:17:09;24.00;99.90
16076;DHT22;8142;48.242;11.644;2023-07-31T13:19:35;24.00;99.90
16076;DHT22;8142;48.242;11.644;2023-07-31T13:22:01;24.00;99.90
16076;DHT22;8142;48.242;11.644;2023-07-31T13:24:42;24.00;99.90
16076;DHT22;8142;48.242;11.644;2023-07-31T13:27:08;24.00;99.90
16076;DHT22;8142;48.242;11.644;2023-07-31T13:29:37;24.00;99.90
16076;DHT22;8142;48.242;11.644;2023-07-31T13:35:21;24.00;99.90
16076;DHT22;8142;48.242;11.644;2023-07-31T13:37:50;24.10;99.90
16076;DHT22;8142;48.242;11.644;2023-07-31T13:40:20;24.10;99.90
16076;DHT22;8142;48.242;11.644;2023-07-31T13:42:46;24.10;99.90
16076;DHT22;8142;48.242;11.644;2023-07-31T13:45:13;24.10;99.90
16076;DHT22;8142;48.242;11.644;2023-07-31T13:47:39;24.10;99.90
16076;DHT22;8142;48.242;11.644;2023-07-31T13:50:05;24.10;99.90
16076;DHT22;8142;48.242;11.644;2023-07-31T13:52:31;24.10;99.90
16076;DHT22;8142;48.242;11.644;2023-07-31T13:54:57;24.00;99.90
16076;DHT22;8142;48.242;11.644;2023-07-31T13:57:23;24.00;99.90
16076;DHT22;8142;48.242;11.644;2023-07-31T13:59:49;24.00;99.90
16076;DHT22;8142;48.242;11.644;2023-07-31T14:02:15;24.00;99.90
16076;DHT22;8142;48.242;11.644;2023-07-31T14:04:41;24.00;99.90
16076;DHT22;8142;48.242;11.644;2023-07-31T14:07:07;23.90;99.90
16076;DHT22;8142;48.242;11.644;2023-07-31T14:09:33;24.00;99.90
16076;DHT22;8142;48.242;11.644;2023-07-31T14:11:59;24.00;99.90
16076;DHT22;8142;48.242;11.644;2023-07-31T14:14:24;24.00;99.90
16076;DHT22;8142;48.242;11.644;2023-07-31T14:16:50;24.00;99.90
16076;DHT22;8142;48.242;11.644;2023-07-31T14:19:16;24.00;99.90
16076;DHT22;8142;48.242;11.644;2023-07-31T14:21:42;24.00;99.90
16076;DHT22;8142;48.242;11.644;2023-07-31T14:24:08;24.00;99.90
16076;DHT22;8142;48.242;11.644;2023-07-31T14:26:34;24.00;99.90
16076;DHT22;8142;48.242;11.644;2023-07-31T14:28:59;24.00;99.90
16076;DHT22;8142;48.242;11.644;2023-07-31T14:31:25;24.10;99.90
16076;DHT22;8142;48.242;11.644;2023-07-31T14:33:51;24.10;99.90
16076;DHT22;8142;48.242;11.644;2023-07-31T14:36:17;24.10;99.90
16076;DHT22;8142;48.242;11.644;2023-07-31T14:38:43;24.10;99.90
16076;DHT22;8142;48.242;11.644;2023-07-31T14:41:09;24.20;99.90
16076;DHT22;8142;48.242;11.644;2023-07-31T14:43:35;24.20;99.90
16076;DHT22;8142;48.242;11.644;2023-07-31T14:46:00;24.20;99.90
16076;DHT22;8142;48.242;11.644;2023-07-31T14:48:27;24.10;99.90
16076;DHT22;8142;48.242;11.644;2023-07-31T14:50:53;24.10;99.90
16076;DHT22;8142;48.242;11.644;2023-07-31T14:53:19;24.10;99.90
16076;DHT22;8142;48.242;11.644;2023-07-31T14:55:45;24.10;99.90
16076;DHT22;8142;48.242;11.644;2023-07-31T14:58:13;24.10;99.90
16076;DHT22;8142;48.242;11.644;2023-07-31T15:00:40;24.10;99.90
16076;DHT22;8142;48.242;11.644;2023-07-31T15:03:06;24.10;99.80
16076;DHT22;8142;48.242;11.644;2023-07-31T15:05:32;24.10;99.90
16076;DHT22;8142;48.242;11.644;2023-07-31T15:07:57;24.00;99.60
16076;DHT22;8142;48.242;11.644;2023-07-31T15:10:23;24.00;99.70
16076;DHT22;8142;48.242;11.644;2023-07-31T15:12:49;23.90;99.90
16076;DHT22;8142;48.242;11.644;2023-07-31T15:15:15;23.90;99.90
16076;DHT22;8142;48.242;11.644;2023-07-31T15:17:42;23.80;99.90
16076;DHT22;8142;48.242;11.644;2023-07-31T15:20:09;23.80;99.90
16076;DHT22;8142;48.242;11.644;2023-07-31T15:22:35;23.70;99.90
16076;DHT22;8142;48.242;11.644;2023-07-31T15:25:01;23.70;99.90
16076;DHT22;8142;48.242;11.644;2023-07-31T15:27:27;23.60;99.90
16076;DHT22;8142;48.242;11.644;2023-07-31T15:29:53;23.60;99.90
16076;DHT22;8142;48.242;11.644;2023-07-31T15:32:22;23.60;99.90
16076;DHT22;8142;48.242;11.644;2023-07-31T15:34:51;23.60;99.90
16076;DHT22;8142;48.242;11.644;2023-07-31T15:37:17;23.60;99.90
16076;DHT22;8142;48.242;11.644;2023-07-31T15:39:43;23.50;99.90
16076;DHT22;8142;48.242;11.644;2023-07-31T15:42:09;23.50;99.90
16076;DHT22;8142;48.242;11.644;2023-07-31T15:44:35;23.50;99.90
16076;DHT22;8142;48.242;11.644;2023-07-31T15:47:01;23.50;99.90